Time;durP1;ratioP1;P1;durP2;ratioP2;P2;SDS_P1;SDS_P2;PMS_P1;PMS_P2;Temp;Humidity;BMP_temperature;BMP_pressure;BME280_temperature;BME280_humidity;BME280_pressure;Samples;Min_cycle;Max_cycle;Signal;HPM_P1;HPM_P2
2023/08/27 00:00:07;;;;;;;1.70;0.97;;;22.70;66.40;;;;;;6141448;23;20422;-72
2023/08/27 00:02:42;;;;;;;1.70;1.27;;;22.70;66.50;;;;;;6144358;22;20782;-72
2023/08/27 00:05:10;;;;;;;1.47;1.37;;;22.70;66.40;;;;;;6140203;23;20921;-72
2023/08/27 00:07:40;;;;;;;1.20;0.90;;;22.70;66.50;;;;;;6142283;23;20471;-72
2023/08/27 00:10:09;;;;;;;1.63;1.30;;;22.70;66.50;;;;;;6142923;23;20422;-72
2023/08/27 00:12:38;;;;;;;1.80;1.20;;;22.70;66.40;;;;;;6141535;23;20409;-72
2023/08/27 00:15:08;;;;;;;2.20;1.00;;;22.70;67.80;;;;;;6141752;23;20430;-72
2023/08/27 00:17:36;;;;;;;1.10;0.80;;;22.70;66.40;;;;;;6141758;23;20479;-72
2023/08/27 00:20:09;;;;;;;1.20;1.00;;;22.70;66.50;;;;;;6140712;23;20950;-72
2023/08/27 00:22:37;;;;;;;1.83;1.10;;;22.70;66.40;;;;;;6142166;23;20390;-72
2023/08/27 00:25:08;;;;;;;1.37;1.00;;;22.70;66.40;;;;;;6140569;23;20461;-72
2023/08/27 00:27:36;;;;;;;1.60;1.40;;;22.70;66.40;;;;;;6142603;23;21124;-72
2023/08/27 00:30:06;;;;;;;1.70;1.00;;;22.70;66.50;;;;;;6140024;23;21033;-72
2023/08/27 00:32:34;;;;;;;1.80;1.10;;;22.70;66.40;;;;;;6141591;23;20451;-72
2023/08/27 00:35:03;;;;;;;1.20;1.10;;;22.70;66.40;;;;;;6115515;23;20541;-72
2023/08/27 00:37:32;;;;;;;1.43;1.20;;;22.70;66.40;;;;;;6141775;23;20949;-72
2023/08/27 00:40:00;;;;;;;1.43;1.17;;;22.70;66.40;;;;;;6141390;23;20480;-72
2023/08/27 00:42:30;;;;;;;1.97;0.97;;;22.70;66.40;;;;;;6141466;23;20423;-72
2023/08/27 00:44:58;;;;;;;1.43;1.30;;;22.70;66.40;;;;;;6140239;23;20467;-72
2023/08/27 00:47:27;;;;;;;1.27;1.00;;;22.70;66.40;;;;;;6142441;23;20905;-72
2023/08/27 00:49:55;;;;;;;1.20;1.00;;;22.70;66.50;;;;;;6141144;23;20434;-72
2023/08/27 00:52:25;;;;;;;1.10;0.80;;;22.60;66.40;;;;;;6142573;23;21434;-72
2023/08/27 00:54:56;;;;;;;1.40;1.10;;;22.70;66.40;;;;;;6141553;23;20429;-72
2023/08/27 00:57:26;;;;;;;1.40;1.20;;;22.60;66.30;;;;;;6143756;23;20421;-72
2023/08/27 00:59:58;;;;;;;1.63;0.80;;;22.70;66.50;;;;;;6140586;23;20463;-72
2023/08/27 01:02:29;;;;;;;1.20;1.10;;;22.70;67.70;;;;;;6141935;23;20443;-72
2023/08/27 01:04:58;;;;;;;1.37;0.83;;;22.70;66.40;;;;;;6140222;23;20759;-72
2023/08/27 01:07:32;;;;;;;1.13;0.97;;;22.70;66.40;;;;;;6141866;23;20761;-72
2023/08/27 01:10:09;;;;;;;1.10;0.80;;;22.70;66.50;;;;;;6139405;23;20440;-72
2023/08/27 01:12:45;;;;;;;1.10;0.73;;;22.60;66.40;;;;;;6141456;23;20378;-72
2023/08/27 01:15:17;;;;;;;1.47;1.07;;;22.60;66.30;;;;;;6140648;23;20486;-72
2023/08/27 01:17:47;;;;;;;1.20;0.90;;;22.60;66.30;;;;;;6142199;23;20420;-72
2023/08/27 01:20:16;;;;;;;1.17;0.80;;;22.60;66.30;;;;;;6140282;23;20898;-72
2023/08/27 01:22:46;;;;;;;1.13;0.87;;;22.60;66.40;;;;;;6140978;23;20941;-72
2023/08/27 01:25:19;;;;;;;1.13;1.03;;;22.60;66.30;;;;;;6140843;23;20433;-72
2023/08/27 01:27:54;;;;;;;1.50;1.03;;;22.60;66.30;;;;;;6142088;23;20795;-72
2023/08/27 01:30:27;;;;;;;1.33;1.00;;;22.60;66.40;;;;;;6140491;23;20435;-72
2023/08/27 01:33:01;;;;;;;1.30;1.03;;;22.60;66.30;;;;;;6141233;23;20378;-72
2023/08/27 01:35:31;;;;;;;1.13;0.80;;;22.60;66.30;;;;;;6140075;23;20834;-72
2023/08/27 01:38:01;;;;;;;1.60;1.10;;;22.60;66.40;;;;;;6141531;23;20946;-73
2023/08/27 01:40:30;;;;;;;2.10;1.20;;;22.60;66.30;;;;;;6111220;23;20485;-73
2023/08/27 01:42:58;;;;;;;1.13;0.83;;;22.60;66.30;;;;;;6111826;23;20398;-72
2023/08/27 01:45:27;;;;;;;1.07;0.77;;;22.60;66.50;;;;;;6110026;22;20438;-72
2023/08/27 01:47:56;;;;;;;2.00;1.10;;;22.60;66.40;;;;;;6111454;23;20426;-72
2023/08/27 01:50:24;;;;;;;2.97;1.37;;;22.50;66.30;;;;;;6110240;23;20816;-72
2023/08/27 01:52:54;;;;;;;1.67;1.03;;;22.50;66.30;;;;;;6114012;23;20441;-72
2023/08/27 01:55:25;;;;;;;1.30;0.80;;;22.50;66.30;;;;;;6112821;22;20434;-72
2023/08/27 01:57:53;;;;;;;1.23;0.93;;;22.50;66.30;;;;;;6113697;23;20433;-72
2023/08/27 02:00:23;;;;;;;1.50;1.10;;;22.50;66.70;;;;;;6110537;23;20434;-72
2023/08/27 02:02:51;;;;;;;2.47;1.23;;;22.50;66.40;;;;;;6116363;23;20405;-72
2023/08/27 02:05:19;;;;;;;1.63;1.00;;;22.50;66.50;;;;;;6116092;22;20430;-72
2023/08/27 02:07:48;;;;;;;1.40;0.90;;;22.50;66.50;;;;;;6116095;23;20450;-72
2023/08/27 02:10:16;;;;;;;2.20;0.90;;;22.50;66.80;;;;;;6115362;23;20446;-72
2023/08/27 02:12:46;;;;;;;1.30;1.10;;;22.50;66.60;;;;;;6115203;23;20399;-72
2023/08/27 02:15:14;;;;;;;1.27;1.00;;;22.50;66.70;;;;;;6113624;22;20437;-72
2023/08/27 02:17:43;;;;;;;2.03;0.90;;;22.50;66.80;;;;;;6115358;23;20999;-72
2023/08/27 02:20:12;;;;;;;1.43;1.10;;;22.50;66.50;;;;;;6114103;23;20444;-72
2023/08/27 02:22:41;;;;;;;2.53;1.07;;;22.50;66.80;;;;;;6115159;23;20387;-72
2023/08/27 02:25:10;;;;;;;1.00;0.80;;;22.50;66.80;;;;;;6114442;23;20446;-72
2023/08/27 02:27:39;;;;;;;1.53;1.20;;;22.50;66.70;;;;;;6114749;23;20728;-72
2023/08/27 02:30:10;;;;;;;1.30;1.10;;;22.50;66.70;;;;;;6114674;22;20457;-72
2023/08/27 02:32:38;;;;;;;1.90;1.23;;;22.40;66.90;;;;;;6114973;23;20395;-72
2023/08/27 02:35:07;;;;;;;1.87;0.90;;;22.40;66.80;;;;;;6115010;23;20775;-72
2023/08/27 02:37:36;;;;;;;1.13;0.80;;;22.40;66.30;;;;;;6115367;23;20422;-72
2023/08/27 02:40:05;;;;;;;1.80;0.80;;;22.40;66.50;;;;;;6114489;23;20529;-72
2023/08/27 02:42:33;;;;;;;1.60;1.40;;;22.40;67.10;;;;;;6115038;23;20391;-72
2023/08/27 02:45:02;;;;;;;1.10;0.83;;;22.40;66.60;;;;;;6113722;22;20952;-72
2023/08/27 02:47:33;;;;;;;1.30;0.93;;;22.40;67.00;;;;;;6114828;23;20432;-72
2023/08/27 02:50:01;;;;;;;1.53;1.13;;;22.40;67.00;;;;;;6113460;23;20442;-72
2023/08/27 02:52:31;;;;;;;1.57;1.10;;;22.40;67.00;;;;;;6115184;23;20689;-72
2023/08/27 02:55:00;;;;;;;1.10;1.00;;;22.40;67.10;;;;;;6115095;23;20986;-72
2023/08/27 02:57:28;;;;;;;1.20;0.90;;;22.40;66.50;;;;;;6115854;23;20947;-72
2023/08/27 02:59:56;;;;;;;1.63;1.07;;;22.30;66.90;;;;;;6136712;23;20783;-72
2023/08/27 03:02:26;;;;;;;1.27;1.00;;;22.30;66.90;;;;;;6143164;23;20397;-72
2023/08/27 03:04:56;;;;;;;1.30;0.70;;;22.30;66.50;;;;;;6141445;23;20531;-72
2023/08/27 03:07:25;;;;;;;1.30;0.90;;;22.30;66.80;;;;;;6143109;23;20412;-72
2023/08/27 03:09:53;;;;;;;1.10;0.70;;;22.30;67.20;;;;;;6140802;23;20530;-72
2023/08/27 03:12:21;;;;;;;1.00;0.70;;;22.30;66.90;;;;;;6141439;23;20444;-72
2023/08/27 03:14:49;;;;;;;1.23;0.97;;;22.30;67.20;;;;;;6139562;23;20939;-72
2023/08/27 03:17:19;;;;;;;1.43;0.93;;;22.30;67.10;;;;;;6141865;23;20754;-72
2023/08/27 03:19:47;;;;;;;1.40;1.07;;;22.30;66.90;;;;;;6140787;23;20438;-72
2023/08/27 03:22:17;;;;;;;1.47;0.90;;;22.20;67.00;;;;;;6142591;23;20378;-72
2023/08/27 03:24:46;;;;;;;1.00;0.83;;;22.30;67.40;;;;;;6140202;23;20433;-72
2023/08/27 03:27:14;;;;;;;1.17;0.80;;;22.30;67.50;;;;;;6141641;23;20413;-72
2023/08/27 03:29:43;;;;;;;1.30;0.87;;;22.30;67.60;;;;;;6139953;23;20533;-72
2023/08/27 03:32:13;;;;;;;1.10;0.70;;;22.30;67.50;;;;;;6141544;23;20587;-72
2023/08/27 03:34:42;;;;;;;1.27;0.80;;;22.30;67.50;;;;;;6140568;23;20528;-72
2023/08/27 03:37:10;;;;;;;0.97;0.70;;;22.30;67.40;;;;;;6141048;23;20516;-72
2023/08/27 03:39:40;;;;;;;1.10;0.70;;;22.30;67.40;;;;;;6140564;23;20765;-72
2023/08/27 03:42:08;;;;;;;1.20;0.83;;;22.30;67.30;;;;;;6141259;23;20930;-72
2023/08/27 03:44:36;;;;;;;1.90;0.70;;;22.30;67.40;;;;;;6139469;23;20988;-72
2023/08/27 03:47:06;;;;;;;1.07;0.80;;;22.30;67.40;;;;;;6141514;23;20529;-72
2023/08/27 03:49:35;;;;;;;1.30;0.90;;;22.30;67.40;;;;;;6139845;23;20533;-72
2023/08/27 03:52:04;;;;;;;1.20;0.77;;;22.30;67.40;;;;;;6140224;23;20393;-72
2023/08/27 03:54:32;;;;;;;1.30;1.00;;;22.30;67.50;;;;;;6140176;23;20441;-72
2023/08/27 03:57:03;;;;;;;1.33;1.03;;;22.30;67.60;;;;;;6141866;23;20429;-73
2023/08/27 03:59:31;;;;;;;1.20;0.97;;;22.30;67.70;;;;;;6139794;23;20468;-73
2023/08/27 04:02:00;;;;;;;1.13;0.80;;;22.30;67.70;;;;;;6141074;23;20393;-72
2023/08/27 04:04:30;;;;;;;1.60;1.27;;;22.30;67.80;;;;;;6139821;23;20429;-72
2023/08/27 04:06:58;;;;;;;2.30;0.77;;;22.30;67.80;;;;;;6140669;23;20406;-72
2023/08/27 04:09:27;;;;;;;1.77;0.90;;;22.30;67.80;;;;;;6141455;23;20443;-72
2023/08/27 04:11:56;;;;;;;1.30;0.70;;;22.30;67.70;;;;;;6142038;23;20385;-72
2023/08/27 04:14:25;;;;;;;1.33;0.90;;;22.30;67.70;;;;;;6140298;23;20437;-72
2023/08/27 04:16:54;;;;;;;1.10;0.80;;;22.20;67.70;;;;;;6142773;23;20496;-72
2023/08/27 04:19:22;;;;;;;1.50;1.40;;;22.20;67.60;;;;;;6141225;23;20448;-72
2023/08/27 04:21:51;;;;;;;1.17;0.90;;;22.20;67.60;;;;;;6141856;23;20462;-73
2023/08/27 04:24:19;;;;;;;1.57;1.00;;;22.20;67.70;;;;;;6141549;23;20915;-72
2023/08/27 04:26:48;;;;;;;1.00;0.63;;;22.20;67.60;;;;;;6142834;23;20393;-72
2023/08/27 04:29:16;;;;;;;1.50;1.00;;;22.20;67.80;;;;;;6141384;23;20433;-72
2023/08/27 04:31:46;;;;;;;1.10;0.90;;;22.20;67.80;;;;;;6142141;23;20425;-72
2023/08/27 04:34:15;;;;;;;1.03;0.70;;;22.20;67.70;;;;;;6141858;23;20441;-72
2023/08/27 04:36:43;;;;;;;2.00;1.07;;;22.20;67.80;;;;;;6141752;23;20420;-72
2023/08/27 04:39:13;;;;;;;1.43;1.10;;;22.20;67.60;;;;;;6142694;23;20533;-72
2023/08/27 04:41:42;;;;;;;1.60;1.07;;;22.20;67.70;;;;;;6142160;23;20375;-72
2023/08/27 04:44:10;;;;;;;1.17;0.80;;;22.20;67.70;;;;;;6141317;23;20437;-72
2023/08/27 04:46:42;;;;;;;1.10;0.60;;;22.20;67.80;;;;;;6142244;23;20406;-72
2023/08/27 04:49:14;;;;;;;1.10;0.80;;;22.20;67.80;;;;;;6142432;23;20432;-72
2023/08/27 04:51:43;;;;;;;1.20;0.90;;;22.10;67.70;;;;;;6141549;23;20457;-72
2023/08/27 04:54:11;;;;;;;1.17;0.80;;;22.10;67.50;;;;;;6142046;23;20782;-72
2023/08/27 04:56:39;;;;;;;1.23;0.90;;;22.10;67.50;;;;;;6143332;23;20496;-72
2023/08/27 04:59:10;;;;;;;1.00;0.70;;;22.10;67.70;;;;;;6143136;23;20422;-72
2023/08/27 05:01:39;;;;;;;1.30;0.80;;;22.10;67.90;;;;;;6142790;23;21039;-72
2023/08/27 05:04:07;;;;;;;1.20;0.70;;;22.10;67.90;;;;;;6141112;23;20445;-72
2023/08/27 05:06:37;;;;;;;1.30;0.87;;;22.10;67.80;;;;;;6141738;23;20447;-72
2023/08/27 05:09:06;;;;;;;1.20;0.83;;;22.10;67.80;;;;;;6142207;23;20382;-72
2023/08/27 05:11:34;;;;;;;1.20;0.90;;;22.10;67.90;;;;;;6142368;23;20505;-72
2023/08/27 05:14:03;;;;;;;1.07;0.60;;;22.10;68.00;;;;;;6140356;23;20491;-72
2023/08/27 05:16:34;;;;;;;1.43;0.90;;;22.10;68.10;;;;;;6142571;23;20402;-72
2023/08/27 05:19:03;;;;;;;1.10;0.87;;;22.10;68.20;;;;;;6142732;23;20723;-72
2023/08/27 05:21:31;;;;;;;1.27;1.07;;;22.10;68.30;;;;;;6141637;23;20451;-73
2023/08/27 05:24:01;;;;;;;0.90;0.70;;;22.10;68.20;;;;;;6140967;23;20441;-73
2023/08/27 05:26:29;;;;;;;1.40;0.80;;;22.10;68.20;;;;;;6142529;23;20413;-73
2023/08/27 05:28:58;;;;;;;1.87;1.10;;;22.10;68.20;;;;;;6141155;23;20899;-73
2023/08/27 05:31:26;;;;;;;3.10;1.10;;;22.10;68.20;;;;;;6141456;23;20433;-73
2023/08/27 05:33:54;;;;;;;1.43;1.00;;;22.10;68.00;;;;;;6141010;23;20438;-73
2023/08/27 05:36:23;;;;;;;1.30;0.93;;;22.10;68.30;;;;;;6141140;23;20418;-73
2023/08/27 05:38:51;;;;;;;1.13;0.77;;;22.10;68.40;;;;;;6141676;23;20499;-73
2023/08/27 05:41:21;;;;;;;1.37;0.90;;;22.10;68.20;;;;;;6116977;23;20429;-73
2023/08/27 05:43:49;;;;;;;1.27;0.80;;;22.10;68.20;;;;;;6140376;23;20463;-73
2023/08/27 05:46:18;;;;;;;1.00;0.73;;;22.10;68.30;;;;;;6116730;23;20416;-73
2023/08/27 05:48:47;;;;;;;1.90;0.63;;;22.10;68.40;;;;;;6141663;23;20441;-73
2023/08/27 05:51:15;;;;;;;1.00;0.70;;;22.10;68.40;;;;;;6140933;23;20586;-73
2023/08/27 05:53:44;;;;;;;1.30;0.80;;;22.00;68.50;;;;;;6141585;23;20416;-73
2023/08/27 05:56:13;;;;;;;1.07;0.77;;;22.00;68.40;;;;;;6141512;23;20497;-73
2023/08/27 05:58:43;;;;;;;1.00;0.60;;;22.00;68.50;;;;;;6140599;23;20437;-76
2023/08/27 06:01:11;;;;;;;2.70;1.03;;;22.00;68.40;;;;;;6141168;23;20436;-73
2023/08/27 06:03:40;;;;;;;1.40;0.60;;;22.00;68.40;;;;;;6115661;23;20405;-73
2023/08/27 06:06:08;;;;;;;1.47;0.70;;;22.00;68.40;;;;;;6116380;23;20394;-73
2023/08/27 06:08:37;;;;;;;0.90;0.70;;;22.00;68.60;;;;;;6141625;23;20425;-73
2023/08/27 06:11:08;;;;;;;1.00;0.80;;;22.00;68.50;;;;;;6141830;23;20501;-73
2023/08/27 06:13:36;;;;;;;1.20;0.90;;;22.00;68.50;;;;;;6139912;23;20434;-73
2023/08/27 06:16:05;;;;;;;1.50;1.10;;;22.00;68.50;;;;;;6141905;23;20746;-73
2023/08/27 06:18:33;;;;;;;0.93;0.70;;;22.00;68.60;;;;;;6141472;23;20935;-73
2023/08/27 06:21:03;;;;;;;1.50;0.90;;;22.00;68.70;;;;;;6141136;23;20405;-73
2023/08/27 06:23:31;;;;;;;1.20;0.90;;;22.00;68.60;;;;;;6142223;23;20444;-73
2023/08/27 06:26:03;;;;;;;1.00;0.60;;;22.00;68.80;;;;;;6142669;23;20389;-73
2023/08/27 06:28:32;;;;;;;1.30;0.93;;;22.00;68.80;;;;;;6141578;23;20976;-73
2023/08/27 06:31:01;;;;;;;1.30;1.00;;;21.90;68.60;;;;;;6140807;23;20525;-73
2023/08/27 06:33:32;;;;;;;2.40;0.77;;;21.90;68.60;;;;;;6140855;23;20706;-73
2023/08/27 06:36:00;;;;;;;1.73;0.70;;;21.90;68.50;;;;;;6140351;23;20689;-73
2023/08/27 06:38:28;;;;;;;1.83;0.90;;;21.90;68.70;;;;;;6140581;23;20491;-73
2023/08/27 06:40:57;;;;;;;1.47;1.10;;;21.90;68.80;;;;;;6141308;23;20402;-73
2023/08/27 06:43:26;;;;;;;1.37;0.63;;;21.90;68.80;;;;;;6141134;23;20378;-73
2023/08/27 06:45:57;;;;;;;1.60;1.00;;;21.90;68.70;;;;;;6140414;23;20390;-73
2023/08/27 06:48:26;;;;;;;1.07;0.73;;;21.90;68.70;;;;;;6141026;23;20418;-71
2023/08/27 06:50:56;;;;;;;1.43;0.73;;;21.90;68.60;;;;;;6140682;23;20393;-73
2023/08/27 06:53:24;;;;;;;1.07;0.77;;;21.90;68.70;;;;;;6139240;23;20405;-72
2023/08/27 06:55:53;;;;;;;1.23;0.93;;;21.90;68.90;;;;;;6140328;23;20402;-72
2023/08/27 06:58:21;;;;;;;1.80;0.90;;;21.90;68.90;;;;;;6142031;23;20426;-73
2023/08/27 07:00:50;;;;;;;1.80;1.00;;;21.90;68.70;;;;;;6141188;23;20394;-72
2023/08/27 07:03:20;;;;;;;1.90;1.00;;;21.90;68.80;;;;;;6141353;23;20401;-72
2023/08/27 07:05:48;;;;;;;1.30;0.90;;;21.90;68.60;;;;;;6141854;23;20794;-72
2023/08/27 07:08:19;;;;;;;1.03;0.87;;;21.90;68.50;;;;;;6142276;23;20417;-73
2023/08/27 07:10:50;;;;;;;2.00;1.10;;;21.80;68.40;;;;;;6141554;23;20417;-73
2023/08/27 07:13:18;;;;;;;1.87;1.10;;;21.90;68.70;;;;;;6140779;23;20405;-73
2023/08/27 07:15:47;;;;;;;1.83;1.30;;;21.80;68.60;;;;;;6140829;23;20465;-73
2023/08/27 07:18:15;;;;;;;1.20;0.87;;;21.90;68.50;;;;;;6138620;23;20487;-73
2023/08/27 07:20:43;;;;;;;1.30;0.90;;;21.80;68.40;;;;;;6140755;23;20421;-73
2023/08/27 07:23:12;;;;;;;1.70;1.07;;;21.80;68.60;;;;;;6140314;23;20398;-73
2023/08/27 07:25:42;;;;;;;1.93;0.90;;;21.80;68.60;;;;;;6140934;23;20819;-73
2023/08/27 07:28:10;;;;;;;2.73;1.20;;;21.80;68.50;;;;;;6141420;23;20410;-73
2023/08/27 07:30:39;;;;;;;1.90;1.10;;;21.80;68.60;;;;;;6140313;23;20418;-73
2023/08/27 07:33:07;;;;;;;1.83;1.00;;;21.80;68.50;;;;;;6139971;23;20927;-73
2023/08/27 07:35:38;;;;;;;1.83;1.10;;;21.80;68.50;;;;;;6110185;23;20422;-73
2023/08/27 07:38:07;;;;;;;1.57;1.10;;;21.80;68.40;;;;;;6110988;23;20411;-71
2023/08/27 07:40:36;;;;;;;1.70;0.73;;;21.80;68.30;;;;;;6110767;23;20418;-71
2023/08/27 07:43:06;;;;;;;1.10;0.90;;;21.80;68.30;;;;;;6111639;23;20871;-73
2023/08/27 07:45:35;;;;;;;1.40;1.17;;;21.80;68.20;;;;;;6111846;23;20472;-73
2023/08/27 07:48:03;;;;;;;1.57;0.90;;;21.80;68.20;;;;;;6113299;23;20483;-73
2023/08/27 07:50:32;;;;;;;1.30;0.90;;;21.80;68.30;;;;;;6111419;23;20432;-73
2023/08/27 07:53:00;;;;;;;1.70;1.17;;;21.80;68.40;;;;;;6112340;23;20429;-71
2023/08/27 07:55:31;;;;;;;1.50;0.70;;;21.80;68.40;;;;;;6111404;23;20526;-73
2023/08/27 07:57:59;;;;;;;2.40;1.07;;;21.80;68.20;;;;;;6113387;23;20741;-73
2023/08/27 08:00:30;;;;;;;1.33;0.90;;;21.80;68.20;;;;;;6111848;23;20893;-73
2023/08/27 08:02:59;;;;;;;1.43;0.90;;;21.80;68.40;;;;;;6112846;23;20876;-73
2023/08/27 08:05:28;;;;;;;1.40;1.00;;;21.80;68.60;;;;;;6112035;23;20434;-72
2023/08/27 08:07:56;;;;;;;2.07;1.10;;;21.80;68.40;;;;;;6113152;23;20525;-73
2023/08/27 08:10:25;;;;;;;1.80;1.00;;;21.80;68.50;;;;;;6112160;23;20993;-73
2023/08/27 08:12:54;;;;;;;1.87;0.90;;;21.70;68.10;;;;;;6111720;23;20411;-73
2023/08/27 08:15:22;;;;;;;1.27;0.87;;;21.70;68.30;;;;;;6112171;23;20463;-73
2023/08/27 08:17:52;;;;;;;1.30;1.00;;;21.70;68.60;;;;;;6113025;23;20787;-73
2023/08/27 08:20:20;;;;;;;1.70;1.30;;;21.80;68.60;;;;;;6111499;23;20765;-73
2023/08/27 08:22:49;;;;;;;2.33;1.30;;;21.70;68.40;;;;;;6114441;23;20718;-73
2023/08/27 08:25:17;;;;;;;1.20;1.03;;;21.70;68.30;;;;;;6112119;22;20499;-73
2023/08/27 08:27:45;;;;;;;1.80;0.90;;;21.70;68.40;;;;;;6112813;23;20741;-73
2023/08/27 08:30:14;;;;;;;1.53;1.00;;;21.70;68.40;;;;;;6111831;23;20499;-73
2023/08/27 08:32:42;;;;;;;1.60;0.90;;;21.70;68.50;;;;;;6112485;23;20775;-73
2023/08/27 08:35:13;;;;;;;1.87;1.30;;;21.80;68.50;;;;;;6110180;23;20434;-72
2023/08/27 08:37:41;;;;;;;1.40;1.20;;;21.70;68.50;;;;;;6112595;23;20977;-73
2023/08/27 08:40:11;;;;;;;1.20;0.90;;;21.70;68.50;;;;;;6136775;23;20958;-73
2023/08/27 08:42:47;;;;;;;1.93;1.37;;;21.70;68.70;;;;;;6143179;23;20859;-73
2023/08/27 08:45:22;;;;;;;1.43;1.23;;;21.70;68.70;;;;;;6139947;23;20960;-73
2023/08/27 08:47:54;;;;;;;1.30;1.10;;;21.70;68.70;;;;;;6140807;23;20413;-72
2023/08/27 08:50:25;;;;;;;1.30;1.20;;;21.70;68.40;;;;;;6139451;23;20459;-73
2023/08/27 08:52:56;;;;;;;2.60;1.00;;;21.70;68.60;;;;;;6141110;23;20462;-73
2023/08/27 08:55:26;;;;;;;1.90;1.40;;;21.70;68.60;;;;;;6139479;23;20444;-73
2023/08/27 08:57:59;;;;;;;5.70;2.00;;;21.70;70.10;;;;;;6140701;23;20744;-73
2023/08/27 09:00:28;;;;;;;2.10;1.70;;;21.60;68.60;;;;;;6141517;23;20434;-72
2023/08/27 09:03:03;;;;;;;2.47;1.90;;;21.60;68.20;;;;;;6142482;23;20400;-72
2023/08/27 09:05:34;;;;;;;2.07;1.10;;;21.60;68.00;;;;;;6140130;23;20429;-72
2023/08/27 09:08:09;;;;;;;3.80;1.80;;;21.60;68.80;;;;;;6141249;23;20504;-73
2023/08/27 09:10:39;;;;;;;1.87;1.23;;;21.60;68.10;;;;;;6241365;22;20449;-73
2023/08/27 09:13:07;;;;;;;3.60;1.43;;;21.60;68.20;;;;;;6113603;23;20434;-73
2023/08/27 09:15:35;;;;;;;3.20;1.30;;;21.60;68.10;;;;;;6160192;23;20505;-72
2023/08/27 09:18:04;;;;;;;1.83;1.10;;;21.60;68.40;;;;;;6111298;23;20505;-73
2023/08/27 09:20:34;;;;;;;2.13;1.50;;;21.60;68.20;;;;;;6262311;22;20935;-73
2023/08/27 09:23:03;;;;;;;2.20;1.70;;;21.60;67.80;;;;;;6267612;22;20455;-73
2023/08/27 09:25:31;;;;;;;2.33;1.53;;;21.60;68.40;;;;;;6265540;22;20509;-73
2023/08/27 09:28:00;;;;;;;4.70;1.20;;;21.60;67.90;;;;;;6264849;22;20415;-73
2023/08/27 09:30:28;;;;;;;2.70;1.20;;;21.60;67.80;;;;;;6265308;22;20426;-73
2023/08/27 09:32:57;;;;;;;5.23;1.70;;;21.70;68.20;;;;;;6264670;22;20476;-73
2023/08/27 09:35:38;;;;;;;5.70;1.97;;;21.70;68.20;;;;;;6263750;22;20484;-73
2023/08/27 09:38:07;;;;;;;6.17;1.90;;;21.70;68.20;;;;;;6264828;22;20422;-73
2023/08/27 09:40:35;;;;;;;2.90;1.90;;;21.70;68.30;;;;;;6110478;23;20427;-72
2023/08/27 09:43:06;;;;;;;6.20;1.40;;;21.70;68.40;;;;;;6110807;23;20763;-73
2023/08/27 09:45:35;;;;;;;2.17;1.40;;;21.70;68.50;;;;;;6109437;23;20456;-73
2023/08/27 09:48:05;;;;;;;2.83;1.60;;;21.70;68.50;;;;;;6110699;23;20948;-73
2023/08/27 09:50:34;;;;;;;1.77;1.33;;;21.70;68.60;;;;;;6108890;22;20434;-73
2023/08/27 09:53:08;;;;;;;4.20;1.57;;;21.70;68.50;;;;;;6109591;23;20557;-73
2023/08/27 09:55:37;;;;;;;2.33;1.40;;;21.70;68.60;;;;;;6264137;22;20440;-73
2023/08/27 09:58:06;;;;;;;3.67;1.37;;;21.70;68.60;;;;;;6265313;22;20501;-73
2023/08/27 10:00:35;;;;;;;1.70;1.40;;;21.70;68.60;;;;;;6109271;22;20433;-73
2023/08/27 10:03:03;;;;;;;2.33;1.33;;;21.70;68.60;;;;;;6109241;23;20387;-72
2023/08/27 10:05:34;;;;;;;2.63;1.90;;;21.70;68.60;;;;;;6108953;23;20430;-73
2023/08/27 10:08:05;;;;;;;2.30;1.40;;;21.70;68.60;;;;;;6109584;23;20417;-73
2023/08/27 10:10:36;;;;;;;4.50;1.33;;;21.80;67.80;;;;;;6109411;23;20434;-72
2023/08/27 10:13:05;;;;;;;3.17;1.23;;;21.80;68.30;;;;;;6109849;23;20433;-73
2023/08/27 10:15:36;;;;;;;2.80;1.60;;;21.80;68.30;;;;;;6109045;23;20431;-72
2023/08/27 10:18:06;;;;;;;3.13;1.23;;;21.80;69.70;;;;;;6110378;23;20747;-73
2023/08/27 10:20:35;;;;;;;2.57;1.43;;;21.80;68.20;;;;;;6109340;23;20463;-73
2023/08/27 10:23:03;;;;;;;6.10;1.27;;;21.80;68.30;;;;;;6110377;23;20801;-73
2023/08/27 10:25:35;;;;;;;2.97;2.17;;;21.80;68.40;;;;;;6110214;23;20438;-72
2023/08/27 10:28:06;;;;;;;4.33;1.33;;;21.80;68.40;;;;;;6110769;23;20423;-72
2023/08/27 10:30:35;;;;;;;3.50;1.10;;;21.70;68.20;;;;;;6108384;23;20841;-72
2023/08/27 10:33:04;;;;;;;1.30;1.00;;;21.70;68.20;;;;;;6110414;23;20480;-72
2023/08/27 10:35:37;;;;;;;3.00;1.40;;;21.80;68.30;;;;;;6110971;23;20449;-72
2023/08/27 10:38:07;;;;;;;2.30;1.20;;;21.70;68.20;;;;;;6112750;23;20781;-72
2023/08/27 10:40:37;;;;;;;4.07;1.47;;;21.80;67.40;;;;;;6085616;23;20994;-72
2023/08/27 10:43:10;;;;;;;2.40;0.93;;;21.80;67.50;;;;;;6109458;23;20417;-72
2023/08/27 10:45:38;;;;;;;3.20;1.33;;;21.80;66.60;;;;;;6109500;23;20434;-72
2023/08/27 10:48:08;;;;;;;2.47;1.20;;;21.80;67.40;;;;;;6110549;23;20946;-72
2023/08/27 10:50:47;;;;;;;2.30;1.30;;;21.80;67.60;;;;;;6264384;22;20417;-72
2023/08/27 10:53:16;;;;;;;1.90;1.27;;;21.80;67.20;;;;;;6238694;22;20422;-72
2023/08/27 10:55:50;;;;;;;1.53;1.23;;;21.80;67.50;;;;;;6264558;22;20382;-72
2023/08/27 10:58:20;;;;;;;2.30;1.30;;;21.80;67.50;;;;;;6265536;22;20422;-72
2023/08/27 11:01:07;;;;;;;1.83;0.97;;;21.80;67.80;;;;;;6267425;22;20461;-72
2023/08/27 11:03:59;;;;;;;2.60;1.20;;;21.80;67.20;;;;;;6265265;22;20414;-72
2023/08/27 11:06:43;;;;;;;1.83;1.20;;;21.80;67.80;;;;;;6265800;22;20402;-67
2023/08/27 11:09:17;;;;;;;1.50;1.40;;;21.80;67.60;;;;;;6200399;22;20465;-66
2023/08/27 11:11:54;;;;;;;2.10;0.93;;;21.80;67.50;;;;;;6112779;23;20397;-67
2023/08/27 11:14:25;;;;;;;1.63;1.13;;;21.80;67.40;;;;;;6109674;23;20468;-66
2023/08/27 11:17:01;;;;;;;4.30;1.33;;;21.80;67.50;;;;;;6113531;23;20414;-67
2023/08/27 11:19:34;;;;;;;1.77;1.33;;;21.80;67.40;;;;;;6111287;23;20495;-67
2023/08/27 11:22:06;;;;;;;2.50;1.30;;;21.80;67.20;;;;;;6112586;23;20399;-67
2023/08/27 11:24:35;;;;;;;2.47;1.27;;;21.80;67.30;;;;;;6111231;23;20445;-67
2023/08/27 11:27:06;;;;;;;1.40;0.80;;;21.80;67.40;;;;;;6112269;23;20421;-67
2023/08/27 11:29:38;;;;;;;2.10;1.50;;;21.80;67.60;;;;;;6110821;23;20488;-67
2023/08/27 11:32:07;;;;;;;2.85;1.40;;;21.80;67.70;;;;;;6108981;23;20768;-67
2023/08/27 11:34:37;;;;;;;3.30;1.30;;;21.80;65.60;;;;;;6111616;23;20267;-67
2023/08/27 11:37:06;;;;;;;1.60;1.00;;;21.80;65.60;;;;;;6110806;23;20430;-66
2023/08/27 11:39:36;;;;;;;2.00;1.50;;;21.80;65.60;;;;;;6112909;23;20466;-66
2023/08/27 11:42:11;;;;;;;1.47;1.07;;;21.80;65.70;;;;;;6111574;23;20758;-65
2023/08/27 11:44:47;;;;;;;2.50;1.20;;;21.80;66.50;;;;;;6110283;23;20440;-67
2023/08/27 11:47:15;;;;;;;2.13;1.10;;;21.80;66.60;;;;;;6112230;23;20464;-67
2023/08/27 11:49:44;;;;;;;4.20;1.40;;;21.80;66.80;;;;;;6111928;23;20525;-66
2023/08/27 11:52:13;;;;;;;1.90;1.07;;;21.80;66.80;;;;;;6111619;23;20395;-66
2023/08/27 11:54:43;;;;;;;1.70;1.00;;;21.80;66.80;;;;;;6110364;23;20442;-66
2023/08/27 11:57:14;;;;;;;2.47;1.50;;;21.80;66.80;;;;;;6113204;23;20479;-67
2023/08/27 11:59:42;;;;;;;1.53;0.97;;;21.80;66.60;;;;;;6112074;23;20470;-65
2023/08/27 12:02:11;;;;;;;2.20;1.30;;;21.80;66.30;;;;;;6114259;23;20433;-67
2023/08/27 12:04:41;;;;;;;1.57;0.97;;;21.80;66.20;;;;;;6111619;23;20438;-69
2023/08/27 12:07:10;;;;;;;1.30;1.00;;;21.80;65.80;;;;;;6112587;23;20449;-67
2023/08/27 12:09:39;;;;;;;3.03;1.13;;;21.80;65.60;;;;;;6112419;23;20430;-67
2023/08/27 12:12:09;;;;;;;2.03;1.00;;;21.80;65.60;;;;;;6113095;23;20403;-67
2023/08/27 12:14:38;;;;;;;1.83;1.20;;;21.80;65.60;;;;;;6111284;23;20449;-67
2023/08/27 12:17:09;;;;;;;1.00;0.73;;;21.80;65.60;;;;;;6112090;23;20433;-67
2023/08/27 12:19:40;;;;;;;1.50;1.20;;;21.80;65.70;;;;;;6112242;23;21038;-67
2023/08/27 12:22:09;;;;;;;2.30;1.13;;;21.80;65.60;;;;;;6112074;23;20378;-67
2023/08/27 12:24:42;;;;;;;1.70;1.20;;;21.80;65.60;;;;;;6111863;23;20831;-67
2023/08/27 12:27:12;;;;;;;1.73;1.10;;;21.70;65.50;;;;;;6112090;23;20398;-68
2023/08/27 12:29:42;;;;;;;1.73;1.00;;;21.80;65.20;;;;;;6086501;23;20202;-67
2023/08/27 12:32:12;;;;;;;1.80;1.00;;;21.80;65.60;;;;;;6087873;23;20888;-66
2023/08/27 12:34:42;;;;;;;3.40;1.50;;;21.70;65.50;;;;;;6111458;23;20482;-67
2023/08/27 12:37:11;;;;;;;1.37;0.87;;;21.70;66.10;;;;;;6110530;23;20422;-67
2023/08/27 12:39:42;;;;;;;1.23;0.90;;;21.70;66.50;;;;;;6110952;23;20434;-67
2023/08/27 12:42:12;;;;;;;3.17;1.50;;;21.80;66.80;;;;;;6112159;23;20422;-67
2023/08/27 12:44:42;;;;;;;1.83;0.70;;;21.70;66.70;;;;;;6110247;23;20466;-66
2023/08/27 12:47:12;;;;;;;2.23;1.53;;;21.70;66.80;;;;;;6114166;23;20497;-67
2023/08/27 12:49:40;;;;;;;2.10;1.30;;;21.70;66.90;;;;;;6111532;23;20832;-67
2023/08/27 12:52:09;;;;;;;1.43;1.00;;;21.80;66.90;;;;;;6110877;23;21206;-67
2023/08/27 12:54:37;;;;;;;1.40;1.07;;;21.70;66.80;;;;;;6110677;23;20523;-67
2023/08/27 12:57:05;;;;;;;1.43;1.10;;;21.70;67.00;;;;;;6112130;23;20411;-67
2023/08/27 12:59:34;;;;;;;2.20;1.50;;;21.70;66.00;;;;;;6109385;23;20449;-67